Time;durP1;ratioP1;P1;durP2;ratioP2;P2;SDS_P1;SDS_P2;PMS_P1;PMS_P2;Temp;Humidity;BMP_temperature;BMP_pressure;BME280_temperature;BME280_humidity;BME280_pressure;Samples;Min_cycle;Max_cycle;Signal;HPM_P1;HPM_P2
2022/09/26 00:04:45;;;;;;;;;;;;;;;;;;;;;
2022/09/26 00:10:11;;;;;;;9.40;7.70;;;;;;;;;;5067014;28;20131;-57
2022/09/26 00:12:55;;;;;;;13.63;7.90;;;;;;;;;;5078204;28;20490;-58
2022/09/26 00:15:23;;;;;;;9.32;8.07;;;;;;;;;;5077749;28;20034;-57
2022/09/26 00:20:54;;;;;;;10.98;7.28;;;;;;;;;;5077313;28;20047;-57
2022/09/26 00:23:38;;;;;;;9.73;7.30;;;;;;;;;;5059739;28;20054;-58
2022/09/26 00:26:05;;;;;;;10.20;7.68;;;;;;;;;;5058910;28;20119;-58
2022/09/26 00:28:31;;;;;;;10.57;7.53;;;;;;;;;;5076445;28;20029;-58
2022/09/26 00:31:10;;;;;;;8.38;7.10;;;;;;;;;;5058562;28;20492;-58
2022/09/26 00:33:36;;;;;;;7.85;6.30;;;;;;;;;;5058879;28;20025;-58
2022/09/26 00:36:15;;;;;;;11.80;8.25;;;;;;;;;;5076841;28;20051;-58
2022/09/26 00:38:43;;;;;;;9.20;7.90;;;;;;;;;;5058896;28;20031;-58
2022/09/26 00:41:21;;;;;;;10.82;7.50;;;;;;;;;;5076894;28;20063;-58
2022/09/26 00:43:52;;;;;;;7.88;6.65;;;;;;;;;;5058336;28;20032;-58
2022/09/26 00:46:19;;;;;;;10.00;8.45;;;;;;;;;;5058527;28;20025;-57
2022/09/26 00:49:25;;;;;;;10.32;6.95;;;;;;;;;;5058464;28;20035;-57
2022/09/26 00:52:05;;;;;;;9.68;7.35;;;;;;;;;;5041242;28;20033;-58
2022/09/26 00:57:39;;;;;;;8.30;6.63;;;;;;;;;;5076282;28;20036;-58
2022/09/26 01:00:26;;;;;;;;;;;;;;;;;;;;;
2022/09/26 01:03:02;;;;;;;8.10;6.30;;;;;;;;;;5076305;28;20021;-58
2022/09/26 01:05:34;;;;;;;10.63;6.47;;;;;;;;;;5058674;28;20032;-57
2022/09/26 01:08:22;;;;;;;6.60;5.57;;;;;;;;;;5056504;28;20025;-58
2022/09/26 01:10:49;;;;;;;8.98;7.43;;;;;;;;;;5076714;28;20024;-56
2022/09/26 01:13:16;;;;;;;8.30;7.25;;;;;;;;;;5058098;28;20029;-57
2022/09/26 01:15:48;;;;;;;9.45;7.25;;;;;;;;;;5058245;28;20145;-58
2022/09/26 01:18:27;;;;;;;12.07;7.10;;;;;;;;;;5057900;28;20461;-57
2022/09/26 01:21:07;;;;;;;9.70;7.03;;;;;;;;;;5076175;28;20420;-58
2022/09/26 01:23:42;;;;;;;8.82;6.78;;;;;;;;;;5058101;28;20028;-58
2022/09/26 01:26:30;;;;;;;8.35;6.18;;;;;;;;;;5057893;28;20052;-57
2022/09/26 01:29:34;;;;;;;9.73;7.40;;;;;;;;;;5057639;28;20025;-58
2022/09/26 01:34:58;;;;;;;9.80;7.95;;;;;;;;;;5075648;28;20492;-58
2022/09/26 01:37:42;;;;;;;9.20;6.85;;;;;;;;;;5058324;28;20032;-57
2022/09/26 01:40:15;;;;;;;8.18;6.30;;;;;;;;;;5057509;28;20419;-58
2022/09/26 01:43:04;;;;;;;11.40;7.88;;;;;;;;;;5075531;28;20025;-58
2022/09/26 01:45:53;;;;;;;11.82;7.82;;;;;;;;;;5057169;28;20037;-58
2022/09/26 01:48:24;;;;;;;8.75;7.25;;;;;;;;;;5057569;28;20059;-56
2022/09/26 01:50:57;;;;;;;10.15;7.93;;;;;;;;;;5075441;28;20013;-55
2022/09/26 01:56:39;;;;;;;8.73;6.85;;;;;;;;;;5033513;28;20509;-58
2022/09/26 01:59:30;;;;;;;10.27;8.38;;;;;;;;;;5035119;28;20445;-57
2022/09/26 02:02:06;;;;;;;7.10;6.15;;;;;;;;;;5035250;28;20132;-55
2022/09/26 02:04:45;;;;;;;10.13;7.45;;;;;;;;;;5033967;28;20037;-57
2022/09/26 02:07:14;;;;;;;10.05;6.75;;;;;;;;;;5019260;28;20034;-58
2022/09/26 02:10:03;;;;;;;13.82;8.02;;;;;;;;;;5034123;28;20121;-58
2022/09/26 02:12:39;;;;;;;7.82;6.03;;;;;;;;;;5033870;28;20117;-58
2022/09/26 02:15:17;;;;;;;11.63;7.47;;;;;;;;;;5035025;28;20455;-58
2022/09/26 02:17:55;;;;;;;10.32;8.50;;;;;;;;;;5035141;28;20026;-56
2022/09/26 02:20:36;;;;;;;8.95;7.45;;;;;;;;;;5033923;28;20084;-57
2022/09/26 02:26:12;;;;;;;7.68;6.88;;;;;;;;;;5029455;28;20029;-58
2022/09/26 02:28:59;;;;;;;8.23;7.28;;;;;;;;;;5033836;28;20051;-57
2022/09/26 02:31:31;;;;;;;7.25;6.55;;;;;;;;;;5034930;28;20398;-58
2022/09/26 02:34:03;;;;;;;8.50;6.65;;;;;;;;;;5033343;28;20470;-58
2022/09/26 02:39:39;;;;;;;9.38;6.35;;;;;;;;;;5034766;28;20038;-57
2022/09/26 02:42:28;;;;;;;10.18;7.22;;;;;;;;;;5033183;28;20048;-57
2022/09/26 02:45:15;;;;;;;7.70;6.35;;;;;;;;;;5034514;28;20029;-58
2022/09/26 02:48:03;;;;;;;7.55;6.57;;;;;;;;;;5034723;28;20027;-58
2022/09/26 02:50:51;;;;;;;9.00;6.20;;;;;;;;;;5033275;28;20057;-58
2022/09/26 02:53:32;;;;;;;8.27;6.05;;;;;;;;;;5032841;28;20061;-58
2022/09/26 02:59:14;;;;;;;8.52;7.40;;;;;;;;;;5074081;28;20115;-56
2022/09/26 03:01:58;;;;;;;15.75;6.30;;;;;;;;;;5074358;28;20378;-58
2022/09/26 03:04:27;;;;;;;7.88;6.15;;;;;;;;;;5073798;28;20028;-57
2022/09/26 03:07:09;;;;;;;8.27;7.03;;;;;;;;;;5055557;28;20032;-58
2022/09/26 03:09:52;;;;;;;9.18;7.15;;;;;;;;;;5073716;28;20104;-57
2022/09/26 03:12:23;;;;;;;6.70;5.85;;;;;;;;;;5074375;28;20027;-57
2022/09/26 03:15:02;;;;;;;6.75;5.57;;;;;;;;;;5074100;28;20032;-57
2022/09/26 03:17:33;;;;;;;6.18;5.50;;;;;;;;;;5053767;28;20110;-58
2022/09/26 03:20:11;;;;;;;8.07;6.83;;;;;;;;;;5054441;28;20028;-56
2022/09/26 03:22:42;;;;;;;7.30;6.07;;;;;;;;;;5050353;28;20259;-58
2022/09/26 03:25:12;;;;;;;7.05;6.35;;;;;;;;;;5074297;28;20044;-58
2022/09/26 03:27:45;;;;;;;8.63;5.75;;;;;;;;;;5055567;28;20041;-56
2022/09/26 03:30:16;;;;;;;7.70;5.45;;;;;;;;;;5073876;28;20024;-57
2022/09/26 03:32:42;;;;;;;;;;;;;;;;;;5056525;28;20085;-57
2022/09/26 03:35:23;;;;;;;6.63;5.43;;;;;;;;;;5073822;28;19916;-57
2022/09/26 03:37:56;;;;;;;12.82;6.45;;;;;;;;;;5054757;28;20482;-57
2022/09/26 03:40:38;;;;;;;7.15;5.63;;;;;;;;;;5073426;28;20025;-57
2022/09/26 03:43:04;;;;;;;9.65;6.88;;;;;;;;;;5055483;28;20033;-58
2022/09/26 03:45:56;;;;;;;9.10;6.00;;;;;;;;;;5073583;28;20028;-58
2022/09/26 03:48:44;;;;;;;6.88;5.85;;;;;;;;;;5073266;28;20025;-57
2022/09/26 03:51:13;;;;;;;7.00;5.93;;;;;;;;;;5055360;28;20028;-57
2022/09/26 03:53:41;;;;;;;6.63;5.93;;;;;;;;;;5055347;28;20098;-57
2022/09/26 03:56:40;;;;;;;8.00;6.03;;;;;;;;;;5071681;28;20044;-57
2022/09/26 03:59:32;;;;;;;6.47;5.32;;;;;;;;;;5054723;28;20040;-58
2022/09/26 04:02:04;;;;;;;8.55;5.35;;;;;;;;;;5073991;28;20086;-58
2022/09/26 04:04:39;;;;;;;9.07;6.25;;;;;;;;;;5054842;28;20032;-58
2022/09/26 04:07:18;;;;;;;7.28;5.10;;;;;;;;;;5071036;28;20120;-58
2022/09/26 04:09:51;;;;;;;7.25;5.45;;;;;;;;;;5054937;28;20028;-58
2022/09/26 04:12:35;;;;;;;5.90;4.40;;;;;;;;;;5073080;28;20017;-58
2022/09/26 04:15:17;;;;;;;6.22;5.50;;;;;;;;;;5053588;28;20032;-57
2022/09/26 04:17:49;;;;;;;7.43;5.97;;;;;;;;;;5073472;28;20511;-57
2022/09/26 04:20:21;;;;;;;8.40;6.60;;;;;;;;;;5073062;28;20021;-57
2022/09/26 04:23:14;;;;;;;6.40;4.88;;;;;;;;;;5055015;28;20029;-57
2022/09/26 04:28:51;;;;;;;8.23;6.90;;;;;;;;;;5069237;28;20028;-57
2022/09/26 04:31:29;;;;;;;6.18;5.30;;;;;;;;;;5055203;28;20408;-56
2022/09/26 04:34:13;;;;;;;7.78;4.93;;;;;;;;;;5073358;28;20033;-57
2022/09/26 04:36:49;;;;;;;10.15;4.78;;;;;;;;;;5054957;28;20032;-57
2022/09/26 04:39:18;;;;;;;9.15;5.60;;;;;;;;;;5072349;28;20036;-58
2022/09/26 04:41:47;;;;;;;8.25;4.70;;;;;;;;;;5072247;28;20496;-58
2022/09/26 04:44:30;;;;;;;5.75;4.70;;;;;;;;;;5054336;28;20526;-58
2022/09/26 04:46:57;;;;;;;4.78;4.30;;;;;;;;;;5072852;28;20016;-57
2022/09/26 04:49:38;;;;;;;7.18;5.13;;;;;;;;;;5073169;28;20021;-58
2022/09/26 04:52:22;;;;;;;6.57;4.82;;;;;;;;;;5075022;28;20048;-57
2022/09/26 04:54:55;;;;;;;5.90;4.18;;;;;;;;;;5076970;28;20415;-58
2022/09/26 04:57:27;;;;;;;6.15;5.15;;;;;;;;;;5076663;28;20029;-58
2022/09/26 04:59:57;;;;;;;6.00;4.78;;;;;;;;;;5076451;28;20029;-57
2022/09/26 05:02:48;;;;;;;7.00;4.25;;;;;;;;;;5056554;28;20137;-57
2022/09/26 05:05:51;;;;;;;5.88;5.28;;;;;;;;;;5076488;28;20032;-57
2022/09/26 05:08:32;;;;;;;7.90;5.32;;;;;;;;;;5076401;28;20035;-58
2022/09/26 05:11:16;;;;;;;5.82;4.93;;;;;;;;;;5058286;28;20036;-57
2022/09/26 05:13:53;;;;;;;7.53;5.00;;;;;;;;;;5075992;28;20480;-57
2022/09/26 05:16:29;;;;;;;6.40;4.88;;;;;;;;;;5076093;28;20067;-57
2022/09/26 05:19:20;;;;;;;6.68;5.53;;;;;;;;;;5075842;28;20033;-57
2022/09/26 05:21:52;;;;;;;8.27;5.40;;;;;;;;;;5075495;28;20054;-57
2022/09/26 05:27:06;;;;;;;8.02;6.75;;;;;;;;;;5076331;28;20028;-58
2022/09/26 05:29:36;;;;;;;9.57;6.00;;;;;;;;;;5057881;28;20028;-58
2022/09/26 05:32:15;;;;;;;5.47;4.97;;;;;;;;;;5076141;28;20082;-56
2022/09/26 05:34:44;;;;;;;4.80;4.25;;;;;;;;;;5076047;28;20469;-57
2022/09/26 05:37:24;;;;;;;6.55;5.07;;;;;;;;;;5075565;28;20039;-57
2022/09/26 05:43:10;;;;;;;5.50;3.70;;;;;;;;;;5075840;28;20051;-57
2022/09/26 05:45:40;;;;;;;6.75;4.55;;;;;;;;;;5075630;28;20050;-57
2022/09/26 05:48:09;;;;;;;8.15;4.72;;;;;;;;;;5075525;28;20032;-58
2022/09/26 05:50:50;;;;;;;5.65;4.55;;;;;;;;;;5055796;28;20040;-58
2022/09/26 05:53:16;;;;;;;;;;;;;;;;;;5057602;28;20071;-58
2022/09/26 05:56:07;;;;;;;5.75;4.20;;;;;;;;;;5075196;28;19917;-58
2022/09/26 05:58:40;;;;;;;5.45;4.03;;;;;;;;;;5057047;28;20085;-58
2022/09/26 06:01:30;;;;;;;5.45;4.25;;;;;;;;;;5075661;28;20035;-58
2022/09/26 06:07:11;;;;;;;4.53;3.97;;;;;;;;;;5071510;28;20029;-58
2022/09/26 06:09:37;;;;;;;5.50;4.70;;;;;;;;;;5075374;28;20060;-58
2022/09/26 06:12:13;;;;;;;7.50;4.40;;;;;;;;;;5075560;28;20044;-58
2022/09/26 06:14:46;;;;;;;4.38;3.97;;;;;;;;;;5074933;28;20071;-58
2022/09/26 06:17:12;;;;;;;7.07;4.85;;;;;;;;;;5074936;28;20029;-58
2022/09/26 06:19:45;;;;;;;10.65;4.82;;;;;;;;;;5056429;28;20036;-58
2022/09/26 06:22:38;;;;;;;4.90;4.40;;;;;;;;;;5075135;28;20024;-58
2022/09/26 06:25:10;;;;;;;7.65;4.75;;;;;;;;;;5074001;28;20554;-58
2022/09/26 06:27:41;;;;;;;7.65;5.05;;;;;;;;;;5075165;28;20025;-58
2022/09/26 06:30:17;;;;;;;5.25;4.18;;;;;;;;;;5056772;28;20032;-58
2022/09/26 06:32:47;;;;;;;5.95;4.65;;;;;;;;;;5074910;28;20047;-58
2022/09/26 06:35:20;;;;;;;5.38;4.38;;;;;;;;;;5051252;28;20044;-58
2022/09/26 06:37:47;;;;;;;6.47;4.88;;;;;;;;;;5074544;28;20370;-58
2022/09/26 06:40:19;;;;;;;5.50;4.53;;;;;;;;;;5074598;28;20024;-57
2022/09/26 06:42:54;;;;;;;9.55;4.47;;;;;;;;;;5074361;28;20039;-58
2022/09/26 06:45:23;;;;;;;4.40;3.55;;;;;;;;;;5056186;28;20035;-58
2022/09/26 06:48:05;;;;;;;6.32;4.70;;;;;;;;;;5056407;28;20094;-58
2022/09/26 06:50:42;;;;;;;8.02;4.72;;;;;;;;;;5055912;28;20040;-58
2022/09/26 06:53:35;;;;;;;5.13;4.25;;;;;;;;;;5074488;28;20103;-58
2022/09/26 06:59:06;;;;;;;6.75;4.88;;;;;;;;;;5073916;28;20119;-58
2022/09/26 07:01:44;;;;;;;5.35;4.25;;;;;;;;;;5074151;28;20074;-58
2022/09/26 07:07:13;;;;;;;8.43;4.60;;;;;;;;;;5073880;28;20393;-58
2022/09/26 07:09:55;;;;;;;4.55;3.72;;;;;;;;;;5071319;28;20051;-58
2022/09/26 07:12:46;;;;;;;6.30;4.57;;;;;;;;;;5055714;28;20385;-57
2022/09/26 07:15:12;;;;;;;;;;;;;;;;;;5055802;28;20485;-58
2022/09/26 07:18:00;;;;;;;;;;;;;;;;;;;;;
2022/09/26 07:20:31;;;;;;;4.30;3.33;;;;;;;;;;5073739;28;20039;-58
2022/09/26 07:22:59;;;;;;;5.30;3.47;;;;;;;;;;5074255;28;20347;-58
2022/09/26 07:25:32;;;;;;;4.97;3.60;;;;;;;;;;5038407;28;20035;-57
2022/09/26 07:28:07;;;;;;;4.03;3.22;;;;;;;;;;5073717;28;20033;-58
2022/09/26 07:30:34;;;;;;;4.43;3.22;;;;;;;;;;5074089;28;20124;-58
2022/09/26 07:35:55;;;;;;;4.53;3.33;;;;;;;;;;5073893;28;20039;-58
2022/09/26 07:38:21;;;;;;;4.45;3.03;;;;;;;;;;5074045;28;20047;-58
2022/09/26 07:40:53;;;;;;;6.88;3.38;;;;;;;;;;5073759;28;20017;-58
2022/09/26 07:43:36;;;;;;;3.75;3.17;;;;;;;;;;5070881;28;20033;-58
2022/09/26 07:51:33;;;;;;;5.32;3.55;;;;;;;;;;5073598;28;20036;-58
2022/09/26 07:54:06;;;;;;;3.97;2.88;;;;;;;;;;5073809;28;20024;-58
2022/09/26 07:56:48;;;;;;;7.65;3.10;;;;;;;;;;5069589;28;20131;-58
2022/09/26 07:59:21;;;;;;;3.00;2.15;;;;;;;;;;5073428;28;20374;-57
2022/09/26 08:01:53;;;;;;;3.22;2.42;;;;;;;;;;5073512;28;20024;-58
2022/09/26 08:04:32;;;;;;;4.35;2.85;;;;;;;;;;5073347;28;20040;-58
2022/09/26 08:07:01;;;;;;;7.38;2.85;;;;;;;;;;5054615;28;20132;-58
2022/09/26 08:09:37;;;;;;;3.47;2.47;;;;;;;;;;5073080;28;20462;-58
2022/09/26 08:12:16;;;;;;;3.67;2.72;;;;;;;;;;5073277;28;20086;-58
2022/09/26 08:15:02;;;;;;;;;;;;;;;;;;;;;
2022/09/26 08:17:39;;;;;;;3.00;2.17;;;;;;;;;;5071294;28;20032;-58
2022/09/26 08:20:18;;;;;;;3.80;2.50;;;;;;;;;;5054446;28;20496;-58
2022/09/26 08:23:03;;;;;;;;;;;;;;;;;;;;;
2022/09/26 08:28:31;;;;;;;4.10;3.03;;;;;;;;;;5076822;28;20035;-58
2022/09/26 08:31:07;;;;;;;3.05;2.22;;;;;;;;;;5059136;28;20465;-58
2022/09/26 08:33:37;;;;;;;3.78;2.78;;;;;;;;;;5059202;28;20119;-58
2022/09/26 08:36:07;;;;;;;3.78;2.60;;;;;;;;;;5076347;28;20040;-58
2022/09/26 08:38:44;;;;;;;3.58;3.10;;;;;;;;;;5076536;28;20123;-58
2022/09/26 08:41:38;;;;;;;3.25;2.63;;;;;;;;;;5076430;28;20071;-58
2022/09/26 08:44:07;;;;;;;4.60;2.83;;;;;;;;;;5058982;28;20428;-58
2022/09/26 08:47:03;;;;;;;4.55;2.75;;;;;;;;;;5076864;28;20027;-58
2022/09/26 08:49:51;;;;;;;2.95;2.58;;;;;;;;;;5055066;28;20028;-58
2022/09/26 08:52:42;;;;;;;3.40;2.63;;;;;;;;;;5076505;28;20032;-58
2022/09/26 08:55:20;;;;;;;4.82;3.45;;;;;;;;;;5057588;28;20102;-58
2022/09/26 08:57:55;;;;;;;11.38;3.85;;;;;;;;;;5073031;28;20097;-58
2022/09/26 09:00:30;;;;;;;4.45;2.70;;;;;;;;;;5076179;28;20021;-58
2022/09/26 09:03:05;;;;;;;4.20;2.67;;;;;;;;;;5041926;28;20032;-58
2022/09/26 09:06:00;;;;;;;3.40;2.78;;;;;;;;;;5057971;28;20054;-58
2022/09/26 09:08:46;;;;;;;5.22;2.95;;;;;;;;;;5057720;28;20600;-58
2022/09/26 09:11:34;;;;;;;6.88;2.63;;;;;;;;;;5058015;28;20035;-58
2022/09/26 09:14:17;;;;;;;3.55;2.50;;;;;;;;;;5076134;28;20035;-58
2022/09/26 09:16:59;;;;;;;3.38;2.60;;;;;;;;;;5041893;28;20071;-58
2022/09/26 09:19:57;;;;;;;4.00;2.85;;;;;;;;;;5076482;28;20414;-58
2022/09/26 09:22:43;;;;;;;3.97;2.30;;;;;;;;;;5064648;28;20064;-58
2022/09/26 09:25:21;;;;;;;2.70;1.63;;;;;;;;;;5074891;28;20040;-58
2022/09/26 09:28:02;;;;;;;2.90;2.10;;;;;;;;;;5057927;28;20090;-58
2022/09/26 09:30:39;;;;;;;2.10;1.60;;;;;;;;;;5076393;28;20458;-58
2022/09/26 09:33:09;;;;;;;5.00;4.05;;;;;;;;;;5040938;28;20036;-58
2022/09/26 09:35:50;;;;;;;2.90;1.98;;;;;;;;;;5075803;28;20036;-58
2022/09/26 09:38:20;;;;;;;5.30;2.38;;;;;;;;;;5041693;28;20120;-58
2022/09/26 09:40:46;;;;;;;;;;;;;;;;;;5076218;28;20036;-58
2022/09/26 09:43:25;;;;;;;5.90;2.30;;;;;;;;;;5057746;28;19904;-58
2022/09/26 09:45:57;;;;;;;2.72;1.90;;;;;;;;;;5075491;28;20074;-58
2022/09/26 09:48:26;;;;;;;5.22;2.10;;;;;;;;;;5041001;28;20396;-58
2022/09/26 09:51:15;;;;;;;3.30;2.10;;;;;;;;;;5041429;28;20370;-58
2022/09/26 09:54:03;;;;;;;3.33;2.15;;;;;;;;;;5075184;28;20063;-58
2022/09/26 09:56:35;;;;;;;2.15;1.70;;;;;;;;;;5075087;28;20481;-58
2022/09/26 09:59:17;;;;;;;3.22;1.90;;;;;;;;;;5057096;28;20033;-58
2022/09/26 10:01:46;;;;;;;3.90;2.53;;;;;;;;;;5057088;28;20029;-58
2022/09/26 10:04:37;;;;;;;3.08;2.05;;;;;;;;;;5075571;28;20024;-58
2022/09/26 10:07:19;;;;;;;4.18;1.85;;;;;;;;;;5058693;28;20493;-58
2022/09/26 10:09:52;;;;;;;3.15;1.92;;;;;;;;;;5057133;28;20024;-58
2022/09/26 10:12:31;;;;;;;4.40;2.20;;;;;;;;;;5075050;28;20029;-58
2022/09/26 10:15:02;;;;;;;3.05;2.20;;;;;;;;;;5056768;28;20032;-58
2022/09/26 10:17:29;;;;;;;3.80;2.20;;;;;;;;;;5074980;28;20048;-58
2022/09/26 10:20:01;;;;;;;3.67;1.90;;;;;;;;;;5040439;28;20031;-58
2022/09/26 10:22:36;;;;;;;1.67;1.10;;;;;;;;;;5056938;28;20078;-58
2022/09/26 10:25:18;;;;;;;2.97;1.58;;;;;;;;;;5056573;28;20036;-58
2022/09/26 10:27:58;;;;;;;3.90;1.83;;;;;;;;;;5057763;28;20387;-58
2022/09/26 10:30:31;;;;;;;2.47;1.45;;;;;;;;;;5056661;28;20029;-58
2022/09/26 10:33:00;;;;;;;2.72;1.77;;;;;;;;;;5057292;28;20029;-58
2022/09/26 10:35:51;;;;;;;2.13;1.30;;;;;;;;;;5074223;28;20036;-58
2022/09/26 10:38:22;;;;;;;3.05;1.45;;;;;;;;;;5074502;28;20033;-58
2022/09/26 10:40:49;;;;;;;;;;;;;;;;;;5056630;28;20504;-58
2022/09/26 10:43:27;;;;;;;2.53;1.60;;;;;;;;;;5056249;28;19956;-59
2022/09/26 10:46:13;;;;;;;1.80;1.02;;;;;;;;;;5056402;28;20119;-59
2022/09/26 10:48:56;;;;;;;6.10;1.48;;;;;;;;;;5055340;28;20561;-59
2022/09/26 10:51:26;;;;;;;2.03;1.25;;;;;;;;;;5074561;28;20464;-58
2022/09/26 10:54:03;;;;;;;3.00;2.47;;;;;;;;;;5056066;28;20028;-59
2022/09/26 10:56:35;;;;;;;2.28;1.00;;;;;;;;;;5074353;28;20060;-59
2022/09/26 10:59:07;;;;;;;1.60;0.95;;;;;;;;;;5073834;28;20477;-59
2022/09/26 11:01:41;;;;;;;3.70;1.35;;;;;;;;;;5074292;28;20032;-59
2022/09/26 11:07:18;;;;;;;2.30;1.15;;;;;;;;;;5074204;28;20558;-58
2022/09/26 11:09:45;;;;;;;3.53;1.20;;;;;;;;;;5074705;28;20450;-58
2022/09/26 11:12:25;;;;;;;1.92;1.10;;;;;;;;;;5073053;28;20067;-59
2022/09/26 11:15:00;;;;;;;3.15;1.08;;;;;;;;;;5074841;28;20362;-59
2022/09/26 11:17:44;;;;;;;1.67;0.93;;;;;;;;;;5074205;28;20339;-58
2022/09/26 11:20:18;;;;;;;1.60;0.98;;;;;;;;;;5055909;28;20077;-59
2022/09/26 11:22:51;;;;;;;1.05;0.52;;;;;;;;;;5073972;28;20081;-58
2022/09/26 11:25:22;;;;;;;1.33;0.77;;;;;;;;;;5072785;28;20056;-58
2022/09/26 11:27:55;;;;;;;1.70;1.20;;;;;;;;;;5073773;28;20039;-59
2022/09/26 11:30:26;;;;;;;3.03;1.70;;;;;;;;;;5055869;28;20028;-59
2022/09/26 11:32:57;;;;;;;2.58;0.82;;;;;;;;;;5056317;28;20024;-59
2022/09/26 11:35:42;;;;;;;3.47;0.88;;;;;;;;;;5073334;28;20028;-59
2022/09/26 11:38:14;;;;;;;4.15;0.93;;;;;;;;;;5056283;28;20032;-59
2022/09/26 11:41:06;;;;;;;1.15;0.65;;;;;;;;;;5074258;28;20046;-58
2022/09/26 11:43:58;;;;;;;2.13;0.70;;;;;;;;;;5035398;28;20040;-59
2022/09/26 11:46:30;;;;;;;1.50;0.70;;;;;;;;;;5073221;28;20029;-58
2022/09/26 11:49:14;;;;;;;1.90;0.55;;;;;;;;;;5055503;28;20448;-58
2022/09/26 11:52:06;;;;;;;4.45;0.55;;;;;;;;;;5055980;28;20020;-58
2022/09/26 11:54:48;;;;;;;1.05;0.50;;;;;;;;;;5055096;28;20059;-58
2022/09/26 11:57:24;;;;;;;1.17;0.55;;;;;;;;;;5073481;28;20382;-58
2022/09/26 12:00:15;;;;;;;3.35;1.38;;;;;;;;;;5073178;28;20032;-58
2022/09/26 12:02:57;;;;;;;1.23;0.88;;;;;;;;;;5059601;28;20021;-58
2022/09/26 12:05:35;;;;;;;1.30;0.70;;;;;;;;;;5058996;28;20378;-59
2022/09/26 12:08:20;;;;;;;1.60;0.98;;;;;;;;;;5078089;28;20031;-58
2022/09/26 12:10:46;;;;;;;1.60;0.70;;;;;;;;;;5059135;28;20129;-58
2022/09/26 12:13:21;;;;;;;2.10;1.00;;;;;;;;;;5077716;28;20374;-58
2022/09/26 12:15:58;;;;;;;1.75;0.55;;;;;;;;;;5077291;28;20036;-59
2022/09/26 12:18:42;;;;;;;1.33;0.73;;;;;;;;;;5059034;28;20099;-58
2022/09/26 12:21:23;;;;;;;1.40;1.13;;;;;;;;;;5059094;28;20128;-58
2022/09/26 12:23:55;;;;;;;1.33;0.70;;;;;;;;;;5076754;28;20461;-58
2022/09/26 12:26:57;;;;;;;1.80;0.82;;;;;;;;;;5076712;28;20075;-58
2022/09/26 12:29:36;;;;;;;1.50;0.80;;;;;;;;;;5075748;28;20065;-58
2022/09/26 12:32:22;;;;;;;0.80;0.50;;;;;;;;;;5077043;28;20052;-58
2022/09/26 12:34:55;;;;;;;0.77;0.50;;;;;;;;;;5057283;28;20048;-59
2022/09/26 12:37:44;;;;;;;1.17;0.70;;;;;;;;;;5076507;28;20033;-58
2022/09/26 12:40:10;;;;;;;1.50;0.82;;;;;;;;;;5077444;28;20028;-58
2022/09/26 12:42:49;;;;;;;2.22;0.80;;;;;;;;;;5076608;28;20346;-58
2022/09/26 12:45:41;;;;;;;1.80;0.55;;;;;;;;;;5077208;28;20055;-59
2022/09/26 12:48:13;;;;;;;1.23;0.73;;;;;;;;;;5058426;28;20043;-59
2022/09/26 12:50:39;;;;;;;3.58;0.80;;;;;;;;;;5077032;28;20035;-58
2022/09/26 12:53:27;;;;;;;1.60;0.88;;;;;;;;;;5076947;28;20028;-58
2022/09/26 12:56:32;;;;;;;0.88;0.50;;;;;;;;;;5076401;28;20091;-58
2022/09/26 12:59:06;;;;;;;0.70;0.43;;;;;;;;;;4959119;28;20041;-58
2022/09/26 13:01:42;;;;;;;1.17;0.65;;;;;;;;;;4958686;28;20508;-58
2022/09/26 13:04:12;;;;;;;1.30;0.70;;;;;;;;;;5018163;28;20037;-58
2022/09/26 13:06:57;;;;;;;1.20;0.65;;;;;;;;;;5077206;28;20039;-58
2022/09/26 13:09:36;;;;;;;2.30;0.60;;;;;;;;;;5076120;28;20104;-58
2022/09/26 13:12:42;;;;;;;1.55;0.63;;;;;;;;;;5057849;28;20482;-58
2022/09/26 13:15:09;;;;;;;0.63;0.32;;;;;;;;;;5058620;28;20480;-58
2022/09/26 13:17:40;;;;;;;1.35;0.60;;;;;;;;;;5076394;28;20029;-58
2022/09/26 13:20:33;;;;;;;2.25;0.40;;;;;;;;;;5057839;28;20028;-58
2022/09/26 13:23:08;;;;;;;0.63;0.30;;;;;;;;;;5055856;28;20477;-58
2022/09/26 13:25:43;;;;;;;0.55;0.30;;;;;;;;;;5076045;28;20060;-58
2022/09/26 13:31:29;;;;;;;0.22;0.20;;;;;;;;;;5040141;28;20077;-58
2022/09/26 13:34:05;;;;;;;0.70;0.40;;;;;;;;;;5076176;28;20078;-58
2022/09/26 13:36:37;;;;;;;0.88;0.38;;;;;;;;;;5076214;28;20035;-58
2022/09/26 13:39:08;;;;;;;1.08;0.40;;;;;;;;;;5057363;28;20052;-58
2022/09/26 13:42:00;;;;;;;0.65;0.30;;;;;;;;;;5057500;28;20036;-57
2022/09/26 13:44:39;;;;;;;2.67;0.30;;;;;;;;;;5056820;28;20076;-58
2022/09/26 13:47:22;;;;;;;2.70;0.47;;;;;;;;;;5075629;28;20028;-58
2022/09/26 13:50:13;;;;;;;0.95;0.30;;;;;;;;;;5057258;28;20036;-59
2022/09/26 13:52:39;;;;;;;1.40;0.47;;;;;;;;;;5075048;28;20027;-58
2022/09/26 13:55:16;;;;;;;1.15;0.40;;;;;;;;;;5056713;28;20122;-58
2022/09/26 13:58:09;;;;;;;0.98;0.45;;;;;;;;;;5076163;28;20028;-58
2022/09/26 14:00:39;;;;;;;1.13;0.60;;;;;;;;;;5053417;28;20390;-58
2022/09/26 14:03:08;;;;;;;1.40;0.57;;;;;;;;;;5075492;28;20085;-58
2022/09/26 14:05:45;;;;;;;0.90;0.40;;;;;;;;;;5075786;28;20029;-58
2022/09/26 14:11:30;;;;;;;3.75;0.80;;;;;;;;;;5074926;28;20112;-58
2022/09/26 14:14:18;;;;;;;1.30;0.57;;;;;;;;;;5057319;28;20028;-58
2022/09/26 14:16:48;;;;;;;1.45;0.50;;;;;;;;;;5074878;28;20038;-58
2022/09/26 14:19:15;;;;;;;0.52;0.40;;;;;;;;;;5056677;28;20385;-58
2022/09/26 14:21:54;;;;;;;1.20;0.80;;;;;;;;;;5040245;28;20111;-58
2022/09/26 14:24:31;;;;;;;1.13;0.50;;;;;;;;;;5072837;28;20036;-58
2022/09/26 14:27:00;;;;;;;0.88;0.45;;;;;;;;;;5056400;28;20060;-58
2022/09/26 14:29:29;;;;;;;1.35;0.57;;;;;;;;;;5074708;28;20369;-56
2022/09/26 14:31:57;;;;;;;2.20;1.05;;;;;;;;;;5074349;28;20100;-58
2022/09/26 14:34:42;;;;;;;0.73;0.45;;;;;;;;;;5056262;28;20102;-58
2022/09/26 14:37:27;;;;;;;0.75;0.30;;;;;;;;;;5057256;28;20086;-58
2022/09/26 14:40:01;;;;;;;1.10;0.45;;;;;;;;;;5056160;28;20028;-58
2022/09/26 14:42:53;;;;;;;4.00;0.80;;;;;;;;;;5056134;28;20029;-58
2022/09/26 14:45:21;;;;;;;0.93;0.40;;;;;;;;;;5056406;28;20112;-58
2022/09/26 14:48:03;;;;;;;3.03;0.60;;;;;;;;;;5056216;28;20024;-57
2022/09/26 14:50:57;;;;;;;1.80;0.63;;;;;;;;;;5074395;28;20086;-58
2022/09/26 14:53:24;;;;;;;1.73;0.82;;;;;;;;;;5056440;28;20054;-58
2022/09/26 14:56:06;;;;;;;1.58;0.85;;;;;;;;;;5073575;28;20052;-57
2022/09/26 14:58:38;;;;;;;0.40;0.25;;;;;;;;;;5055884;28;20064;-58
2022/09/26 15:01:16;;;;;;;0.80;0.30;;;;;;;;;;5073857;28;20024;-58
2022/09/26 15:03:51;;;;;;;2.85;0.70;;;;;;;;;;5056008;28;20028;-58
2022/09/26 15:06:20;;;;;;;2.33;0.68;;;;;;;;;;5055843;28;20115;-58
2022/09/26 15:08:49;;;;;;;1.67;0.43;;;;;;;;;;5074322;28;20028;-58
2022/09/26 15:11:50;;;;;;;2.38;1.40;;;;;;;;;;5055739;28;20036;-58
2022/09/26 15:14:30;;;;;;;2.80;1.30;;;;;;;;;;4956695;28;20034;-58
2022/09/26 15:17:04;;;;;;;2.85;0.80;;;;;;;;;;5063247;28;20389;-58
2022/09/26 15:19:41;;;;;;;1.70;0.50;;;;;;;;;;5073377;28;20044;-58
2022/09/26 15:22:16;;;;;;;0.98;0.50;;;;;;;;;;5073858;28;20060;-58
2022/09/26 15:24:45;;;;;;;1.15;0.40;;;;;;;;;;5073894;28;20036;-58
2022/09/26 15:27:18;;;;;;;0.73;0.32;;;;;;;;;;5053336;28;20435;-57
2022/09/26 15:29:48;;;;;;;1.23;0.50;;;;;;;;;;5073390;28;20542;-58
2022/09/26 15:32:20;;;;;;;1.08;0.50;;;;;;;;;;5055776;28;20040;-58
2022/09/26 15:34:47;;;;;;;0.88;0.40;;;;;;;;;;5074187;28;20549;-58
2022/09/26 15:37:29;;;;;;;0.85;0.40;;;;;;;;;;5074093;28;20032;-58
2022/09/26 15:40:12;;;;;;;0.98;0.20;;;;;;;;;;5073549;28;20030;-57
2022/09/26 15:42:57;;;;;;;2.20;0.45;;;;;;;;;;5055569;28;20059;-58
2022/09/26 15:45:45;;;;;;;1.42;0.57;;;;;;;;;;5055844;28;20429;-58
2022/09/26 15:48:35;;;;;;;1.17;0.30;;;;;;;;;;5073323;28;20035;-57
2022/09/26 15:51:28;;;;;;;0.55;0.30;;;;;;;;;;5074154;28;20043;-58
2022/09/26 15:53:58;;;;;;;1.27;0.52;;;;;;;;;;5018827;28;20036;-58
2022/09/26 15:56:51;;;;;;;0.63;0.30;;;;;;;;;;5073288;28;20059;-58
2022/09/26 15:59:32;;;;;;;1.15;0.50;;;;;;;;;;5042854;28;20469;-58
2022/09/26 16:02:02;;;;;;;2.33;0.60;;;;;;;;;;5072931;28;20082;-57
2022/09/26 16:04:32;;;;;;;0.90;0.35;;;;;;;;;;5073151;28;20024;-57
2022/09/26 16:06:58;;;;;;;1.27;0.52;;;;;;;;;;5071358;28;20044;-58
2022/09/26 16:09:39;;;;;;;1.30;0.57;;;;;;;;;;5073318;28;20536;-58
2022/09/26 16:12:12;;;;;;;3.38;1.00;;;;;;;;;;5073764;28;20511;-58
2022/09/26 16:14:45;;;;;;;1.67;0.60;;;;;;;;;;5073602;28;20032;-58
2022/09/26 16:17:19;;;;;;;2.20;0.63;;;;;;;;;;5055089;28;20027;-57
2022/09/26 16:19:46;;;;;;;1.10;0.65;;;;;;;;;;5055067;28;20500;-58
2022/09/26 16:23:05;;;;;;;1.85;1.30;;;;;;;;;;5073320;28;20055;-58
2022/09/26 16:25:33;;;;;;;1.45;0.60;;;;;;;;;;5068802;28;20028;-57
2022/09/26 16:28:31;;;;;;;1.30;0.73;;;;;;;;;;5054909;28;20103;-58
2022/09/26 16:31:07;;;;;;;1.33;0.77;;;;;;;;;;5054790;28;20116;-58
2022/09/26 16:33:53;;;;;;;1.88;1.02;;;;;;;;;;5073236;28;20450;-58
2022/09/26 16:36:27;;;;;;;1.90;0.73;;;;;;;;;;5054822;28;20167;-58
2022/09/26 16:38:54;;;;;;;2.28;0.80;;;;;;;;;;5038004;28;20055;-58
2022/09/26 16:41:27;;;;;;;1.98;0.80;;;;;;;;;;5072954;28;20020;-58
2022/09/26 16:43:54;;;;;;;4.55;0.80;;;;;;;;;;5073161;28;20040;-57
2022/09/26 16:46:37;;;;;;;1.52;0.85;;;;;;;;;;5073371;28;20362;-57
2022/09/26 16:49:26;;;;;;;2.47;0.80;;;;;;;;;;5075588;28;20029;-58
2022/09/26 16:52:10;;;;;;;5.28;1.35;;;;;;;;;;5076102;28;20027;-58
2022/09/26 16:54:39;;;;;;;1.45;0.70;;;;;;;;;;5057661;28;20037;-58
2022/09/26 16:57:11;;;;;;;1.33;0.57;;;;;;;;;;5058181;28;20064;-58